Cotes De Bretagne — FW3973 — position and weather

sailwx.info

Track history (hours):
 
Tides and Currents Weather Stations Pressure Air Temp Water Temp Dewpoint Dewpoint Depression Visibility Wind Speed Wind Dir Waves Ship Positions

Cotes De Bretagne

Last reported at 2016-May-22 01:33 UTC. Time now 2016-May-25 18:54 UTC.
Position N 48°41' W 004°35'.

Length 75 m; draft 4.2 m.

Type: Dredging. MMSI: 227003850.

Date/timePositionNaut miles runAvg speedWind from/ knotsBaromVisibWave heightAir tempDewpointWater temp
2016-May-22 01:33N 48°41' W 004°35'1111.1
2016-May-22 00:33N 48°35' W 004°49'1010.4
2016-May-21 23:33N 48°25' W 004°49'1111.3
2016-May-21 22:33N 48°14' W 004°46'1010.1
2016-May-21 21:34N 48°04' W 004°46'1010.2
2016-May-21 20:33N 47°55' W 004°37'9 9.3
2016-May-21 19:33N 47°48' W 004°28'16 5.2
2016-May-21 16:33N 47°56' W 004°08'3 1.3
2016-May-21 14:34N 47°58' W 004°06'4 4.2
2016-May-21 13:34N 47°55' W 004°09'6 6.3
2016-May-21 12:33N 47°49' W 004°04'12 6.1
2016-May-21 10:31N 47°43' W 003°48'7 7.2
2016-May-21 09:33N 47°39' W 003°40'9 9.0
2016-May-21 08:33N 47°33' W 003°29'9 9.2
2016-May-21 07:33N 47°28' W 003°18'10 9.7
2016-May-21 06:33N 47°22' W 003°07'9 9.1
2016-May-21 05:33N 47°16' W 002°56'9 9.1
2016-May-21 04:33N 47°10' W 002°48'9 8.9
2016-May-21 03:33N 47°03' W 002°39'9 8.7
2016-May-21 02:33N 46°56' W 002°31'9 8.6
2016-May-21 01:33N 46°50' W 002°23'9 8.8
2016-May-21 00:33N 46°43' W 002°14'9 9.5
2016-May-20 23:33N 46°36' W 002°06'9 9.3
2016-May-20 22:33N 46°28' W 001°58'9 9.3
2016-May-20 21:33N 46°20' W 001°50'9 9.3
2016-May-20 20:33N 46°13' W 001°43'2 0.6
2016-May-20 16:33N 46°12' W 001°39'1111.1
2016-May-20 15:33N 46°23' W 001°44'8 7.7
2016-May-20 14:33N 46°30' W 001°48'0 0.0
2016-May-20 13:33N 46°30' W 001°48'0 0.4
2016-May-20 12:33N 46°30' W 001°48'1 1.2
2016-May-20 11:33N 46°28' W 001°47'0 0.0
2016-May-20 10:33N 46°28' W 001°47'1 1.5
2016-May-20 09:33N 46°27' W 001°46'8 8.2
2016-May-20 08:33N 46°19' W 001°44'5 0.8
2016-May-20 02:31N 46°14' W 001°45'9 9.9
2016-May-20 01:33N 46°22' W 001°53'10 9.8
2016-May-20 00:33N 46°30' W 002°00'10 9.7
2016-May-19 23:33N 46°38' W 002°08'10 9.6
2016-May-19 22:34N 46°46' W 002°16'2110.1
2016-May-19 20:30N 47°01' W 002°37'8 8.8
2016-May-19 19:33N 47°08' W 002°45'10 9.7
2016-May-19 18:33N 47°15' W 002°55'1010.3
2016-May-19 17:33N 47°22' W 003°05'1010.0
2016-May-19 16:34N 47°30' W 003°14'1010.0
2016-May-19 15:33N 47°39' W 003°22'6 6.3
2016-May-19 14:34N 47°45' W 003°19'0 0.0
2016-May-19 13:33N 47°45' W 003°19'0 0.1
2016-May-19 12:33N 47°45' W 003°19'3 2.6
2016-May-19 11:34N 47°43' W 003°22'4 3.7
2016-May-19 10:33N 47°40' W 003°24'0 0.0
2016-May-19 09:33N 47°40' W 003°24'0 0.0
2016-May-19 08:33N 47°40' W 003°24'0 0.0
2016-May-19 07:34N 47°40' W 003°24'0 0.0
2016-May-19 06:33N 47°40' W 003°24'0 0.0
2016-May-19 05:34N 47°40' W 003°24'0 0.0
2016-May-19 04:33N 47°40' W 003°24'0 0.0
2016-May-19 03:34N 47°40' W 003°24'0 0.0
2016-May-19 02:33N 47°40' W 003°24'0 0.0
2016-May-19 01:34N 47°40' W 003°24'0 0.0
2016-May-19 00:34N 47°40' W 003°24'0 0.0
2016-May-18 23:34N 47°40' W 003°24'0 0.0
2016-May-18 22:33N 47°40' W 003°24'0 0.0
2016-May-18 21:34N 47°40' W 003°24'2 2.0
2016-May-18 20:33N 47°38' W 003°22'7 6.8
2016-May-18 19:33N 47°33' W 003°16'6 6.1
2016-May-18 18:34N 47°28' W 003°11'6 6.1
2016-May-18 17:34N 47°23' W 003°05'7 6.6
2016-May-18 16:33N 47°18' W 002°59'7 6.9
2016-May-18 15:30N 47°13' W 002°52'6 6.1
2016-May-18 14:33N 47°08' W 002°46'8 5.9
2016-May-18 13:15N 47°02' W 002°39'20 5.4
2016-May-18 09:33N 46°48' W 002°19'10 7.3
2016-May-18 08:13N 46°41' W 002°09'5 7.4
2016-May-18 07:33N 46°37' W 002°04'8 7.8
2016-May-18 06:33N 46°31' W 001°57'8 8.1
2016-May-18 05:33N 46°25' W 001°50'4 4.4
2016-May-18 04:33N 46°22' W 001°45'0 0.1
2016-May-18 03:33N 46°22' W 001°45'0 0.3
2016-May-18 02:33N 46°22' W 001°44'1 0.6
2016-May-18 01:33N 46°22' W 001°45'3 3.0
2016-May-18 00:33N 46°24' W 001°49'1110.7
2016-May-17 23:33N 46°33' W 001°59'1110.8
2016-May-17 22:32N 46°41' W 002°09'3331.3
2016-May-17 21:29N 47°05' W 002°42'0 0.2
2016-May-17 19:30N 47°05' W 002°41'1010.3
2016-May-17 18:33N 47°12' W 002°51'1010.2
2016-May-17 17:33N 47°19' W 003°01'1010.2
2016-May-17 16:34N 47°27' W 003°10'1010.4
2016-May-17 15:33N 47°36' W 003°19'8 8.4
2016-May-17 14:33N 47°44' W 003°20'1 0.8
2016-May-17 13:33N 47°45' W 003°19'0 0.0
2016-May-17 12:33N 47°45' W 003°19'0 0.1
2016-May-17 11:33N 47°45' W 003°19'1 1.5
2016-May-17 10:33N 47°44' W 003°21'0 0.0
2016-May-17 09:33N 47°44' W 003°21'0 0.0
2016-May-17 08:33N 47°44' W 003°21'5 5.0
2016-May-17 07:34N 47°39' W 003°23'9 9.2
2016-May-17 06:34N 47°32' W 003°15'10 9.7
2016-May-17 05:33N 47°24' W 003°07'9 9.3
2016-May-17 04:33N 47°17' W 002°57'10 9.7
2016-May-17 03:33N 47°10' W 002°48'10 9.2
2016-May-17 02:30N 47°02' W 002°39'26 8.2
2016-May-16 23:17N 46°43' W 002°12'6 8.8
2016-May-16 22:33N 46°38' W 002°07'9 8.9
2016-May-16 21:34N 46°30' W 002°00'9 8.8
2016-May-16 20:33N 46°23' W 001°53'9 8.8
2016-May-16 19:33N 46°16' W 001°46'8 1.8
2016-May-16 15:12N 46°09' W 001°39'711.1
2016-May-16 14:33N 46°16' W 001°43'1110.8
2016-May-16 13:33N 46°27' W 001°46'4 3.5
2016-May-16 12:33N 46°30' W 001°48'0 0.0
2016-May-16 11:33N 46°30' W 001°48'4 3.8
2016-May-16 10:33N 46°26' W 001°49'5 4.8
2016-May-16 09:33N 46°22' W 001°50'7 6.1
2016-May-16 08:30N 46°16' W 001°45'6 6.4
2016-May-16 07:33N 46°12' W 001°39'1 0.2
2016-May-16 02:33N 46°11' W 001°41'1010.5
2016-May-16 01:33N 46°21' W 001°46'9 9.0
2016-May-16 00:33N 46°30' W 001°48'0 0.1
2016-May-15 23:33N 46°30' W 001°48'1 1.2
2016-May-15 22:33N 46°29' W 001°47'6 5.9
2016-May-15 21:33N 46°23' W 001°46'6 5.9
2016-May-15 20:33N 46°17' W 001°44'9 7.2
2016-May-15 19:22N 46°10' W 001°39'3 0.7
2016-May-15 15:31N 46°11' W 001°42'1010.6
2016-May-15 14:33N 46°20' W 001°50'1010.5
2016-May-15 13:33N 46°28' W 001°58'1010.5
2016-May-15 12:33N 46°37' W 002°07'3310.8
2016-May-15 09:30N 47°02' W 002°39'9 9.9
2016-May-15 08:33N 47°09' W 002°48'9 9.4
2016-May-15 07:34N 47°16' W 002°57'10 9.8
2016-May-15 06:33N 47°23' W 003°07'9 9.3
2016-May-15 05:33N 47°27' W 003°20'9 9.4
2016-May-15 04:33N 47°30' W 003°33'9 9.4
2016-May-15 03:33N 47°33' W 003°46'10 9.3
2016-May-15 02:28N 47°37' W 003°60'38 9.7
2016-May-14 22:33N 48°01' W 004°44'10 9.7
2016-May-14 21:33N 48°10' W 004°45'10 9.8
2016-May-14 20:33N 48°20' W 004°48'9 8.8
2016-May-14 19:33N 48°29' W 004°50'9 9.4
2016-May-14 18:33N 48°37' W 004°46'1110.9
2016-May-14 17:33N 48°42' W 004°31'  
Track history (hours):
 
Tides and Currents Weather Stations Pressure Air Temp Water Temp Dewpoint Dewpoint Depression Visibility Wind Speed Wind Dir Waves Ship Positions

Cotes De Bretagne

Last reported at 2016-May-22 01:33 UTC. Time now 2016-May-25 18:54 UTC.
Position N 48°41' W 004°35'.

Length 75 m; draft 4.2 m.

Type: Dredging. MMSI: 227003850.

Date/timePositionNaut miles runAvg speedWind from/ knotsBaromVisibWave heightAir tempDewpointWater temp
2016-May-22 01:33N 48°41' W 004°35'1111.1
2016-May-22 00:33N 48°35' W 004°49'1010.4
2016-May-21 23:33N 48°25' W 004°49'1111.3
2016-May-21 22:33N 48°14' W 004°46'1010.1
2016-May-21 21:34N 48°04' W 004°46'1010.2
2016-May-21 20:33N 47°55' W 004°37'9 9.3
2016-May-21 19:33N 47°48' W 004°28'16 5.2
2016-May-21 16:33N 47°56' W 004°08'3 1.3
2016-May-21 14:34N 47°58' W 004°06'4 4.2
2016-May-21 13:34N 47°55' W 004°09'6 6.3
2016-May-21 12:33N 47°49' W 004°04'12 6.1
2016-May-21 10:31N 47°43' W 003°48'7 7.2
2016-May-21 09:33N 47°39' W 003°40'9 9.0
2016-May-21 08:33N 47°33' W 003°29'9 9.2
2016-May-21 07:33N 47°28' W 003°18'10 9.7
2016-May-21 06:33N 47°22' W 003°07'9 9.1
2016-May-21 05:33N 47°16' W 002°56'9 9.1
2016-May-21 04:33N 47°10' W 002°48'9 8.9
2016-May-21 03:33N 47°03' W 002°39'9 8.7
2016-May-21 02:33N 46°56' W 002°31'9 8.6
2016-May-21 01:33N 46°50' W 002°23'9 8.8
2016-May-21 00:33N 46°43' W 002°14'9 9.5
2016-May-20 23:33N 46°36' W 002°06'9 9.3
2016-May-20 22:33N 46°28' W 001°58'9 9.3
2016-May-20 21:33N 46°20' W 001°50'9 9.3
2016-May-20 20:33N 46°13' W 001°43'2 0.6
2016-May-20 16:33N 46°12' W 001°39'1111.1
2016-May-20 15:33N 46°23' W 001°44'8 7.7
2016-May-20 14:33N 46°30' W 001°48'0 0.0
2016-May-20 13:33N 46°30' W 001°48'0 0.4
2016-May-20 12:33N 46°30' W 001°48'1 1.2
2016-May-20 11:33N 46°28' W 001°47'0 0.0
2016-May-20 10:33N 46°28' W 001°47'1 1.5
2016-May-20 09:33N 46°27' W 001°46'8 8.2
2016-May-20 08:33N 46°19' W 001°44'5 0.8
2016-May-20 02:31N 46°14' W 001°45'9 9.9
2016-May-20 01:33N 46°22' W 001°53'10 9.8
2016-May-20 00:33N 46°30' W 002°00'10 9.7
2016-May-19 23:33N 46°38' W 002°08'10 9.6
2016-May-19 22:34N 46°46' W 002°16'2110.1
2016-May-19 20:30N 47°01' W 002°37'8 8.8
2016-May-19 19:33N 47°08' W 002°45'10 9.7
2016-May-19 18:33N 47°15' W 002°55'1010.3
2016-May-19 17:33N 47°22' W 003°05'1010.0
2016-May-19 16:34N 47°30' W 003°14'1010.0
2016-May-19 15:33N 47°39' W 003°22'6 6.3
2016-May-19 14:34N 47°45' W 003°19'0 0.0
2016-May-19 13:33N 47°45' W 003°19'0 0.1
2016-May-19 12:33N 47°45' W 003°19'3 2.6
2016-May-19 11:34N 47°43' W 003°22'4 3.7
2016-May-19 10:33N 47°40' W 003°24'0 0.0
2016-May-19 09:33N 47°40' W 003°24'0 0.0
2016-May-19 08:33N 47°40' W 003°24'0 0.0
2016-May-19 07:34N 47°40' W 003°24'0 0.0
2016-May-19 06:33N 47°40' W 003°24'0 0.0
2016-May-19 05:34N 47°40' W 003°24'0 0.0
2016-May-19 04:33N 47°40' W 003°24'0 0.0
2016-May-19 03:34N 47°40' W 003°24'0 0.0
2016-May-19 02:33N 47°40' W 003°24'0 0.0
2016-May-19 01:34N 47°40' W 003°24'0 0.0
2016-May-19 00:34N 47°40' W 003°24'0 0.0
2016-May-18 23:34N 47°40' W 003°24'0 0.0
2016-May-18 22:33N 47°40' W 003°24'0 0.0
2016-May-18 21:34N 47°40' W 003°24'2 2.0
2016-May-18 20:33N 47°38' W 003°22'7 6.8
2016-May-18 19:33N 47°33' W 003°16'6 6.1
2016-May-18 18:34N 47°28' W 003°11'6 6.1
2016-May-18 17:34N 47°23' W 003°05'7 6.6
2016-May-18 16:33N 47°18' W 002°59'7 6.9
2016-May-18 15:30N 47°13' W 002°52'6 6.1
2016-May-18 14:33N 47°08' W 002°46'8 5.9
2016-May-18 13:15N 47°02' W 002°39'20 5.4
2016-May-18 09:33N 46°48' W 002°19'10 7.3
2016-May-18 08:13N 46°41' W 002°09'5 7.4
2016-May-18 07:33N 46°37' W 002°04'8 7.8
2016-May-18 06:33N 46°31' W 001°57'8 8.1
2016-May-18 05:33N 46°25' W 001°50'4 4.4
2016-May-18 04:33N 46°22' W 001°45'0 0.1
2016-May-18 03:33N 46°22' W 001°45'0 0.3
2016-May-18 02:33N 46°22' W 001°44'1 0.6
2016-May-18 01:33N 46°22' W 001°45'3 3.0
2016-May-18 00:33N 46°24' W 001°49'1110.7
2016-May-17 23:33N 46°33' W 001°59'1110.8
2016-May-17 22:32N 46°41' W 002°09'3331.3
2016-May-17 21:29N 47°05' W 002°42'0 0.2
2016-May-17 19:30N 47°05' W 002°41'1010.3
2016-May-17 18:33N 47°12' W 002°51'1010.2
2016-May-17 17:33N 47°19' W 003°01'1010.2
2016-May-17 16:34N 47°27' W 003°10'1010.4
2016-May-17 15:33N 47°36' W 003°19'8 8.4
2016-May-17 14:33N 47°44' W 003°20'1 0.8
2016-May-17 13:33N 47°45' W 003°19'0 0.0
2016-May-17 12:33N 47°45' W 003°19'0 0.1
2016-May-17 11:33N 47°45' W 003°19'1 1.5
2016-May-17 10:33N 47°44' W 003°21'0 0.0
2016-May-17 09:33N 47°44' W 003°21'0 0.0
2016-May-17 08:33N 47°44' W 003°21'5 5.0
2016-May-17 07:34N 47°39' W 003°23'9 9.2
2016-May-17 06:34N 47°32' W 003°15'10 9.7
2016-May-17 05:33N 47°24' W 003°07'9 9.3
2016-May-17 04:33N 47°17' W 002°57'10 9.7
2016-May-17 03:33N 47°10' W 002°48'10 9.2
2016-May-17 02:30N 47°02' W 002°39'26 8.2
2016-May-16 23:17N 46°43' W 002°12'6 8.8
2016-May-16 22:33N 46°38' W 002°07'9 8.9
2016-May-16 21:34N 46°30' W 002°00'9 8.8
2016-May-16 20:33N 46°23' W 001°53'9 8.8
2016-May-16 19:33N 46°16' W 001°46'8 1.8
2016-May-16 15:12N 46°09' W 001°39'711.1
2016-May-16 14:33N 46°16' W 001°43'1110.8
2016-May-16 13:33N 46°27' W 001°46'4 3.5
2016-May-16 12:33N 46°30' W 001°48'0 0.0
2016-May-16 11:33N 46°30' W 001°48'4 3.8
2016-May-16 10:33N 46°26' W 001°49'5 4.8
2016-May-16 09:33N 46°22' W 001°50'7 6.1
2016-May-16 08:30N 46°16' W 001°45'6 6.4
2016-May-16 07:33N 46°12' W 001°39'1 0.2
2016-May-16 02:33N 46°11' W 001°41'1010.5
2016-May-16 01:33N 46°21' W 001°46'9 9.0
2016-May-16 00:33N 46°30' W 001°48'0 0.1
2016-May-15 23:33N 46°30' W 001°48'1 1.2
2016-May-15 22:33N 46°29' W 001°47'6 5.9
2016-May-15 21:33N 46°23' W 001°46'6 5.9
2016-May-15 20:33N 46°17' W 001°44'9 7.2
2016-May-15 19:22N 46°10' W 001°39'3 0.7
2016-May-15 15:31N 46°11' W 001°42'1010.6
2016-May-15 14:33N 46°20' W 001°50'1010.5
2016-May-15 13:33N 46°28' W 001°58'1010.5
2016-May-15 12:33N 46°37' W 002°07'3310.8
2016-May-15 09:30N 47°02' W 002°39'9 9.9
2016-May-15 08:33N 47°09' W 002°48'9 9.4
2016-May-15 07:34N 47°16' W 002°57'10 9.8
2016-May-15 06:33N 47°23' W 003°07'9 9.3
2016-May-15 05:33N 47°27' W 003°20'9 9.4
2016-May-15 04:33N 47°30' W 003°33'9 9.4
2016-May-15 03:33N 47°33' W 003°46'10 9.3
2016-May-15 02:28N 47°37' W 003°60'38 9.7
2016-May-14 22:33N 48°01' W 004°44'10 9.7
2016-May-14 21:33N 48°10' W 004°45'10 9.8
2016-May-14 20:33N 48°20' W 004°48'9 8.8
2016-May-14 19:33N 48°29' W 004°50'9 9.4
2016-May-14 18:33N 48°37' W 004°46'1110.9
2016-May-14 17:33N 48°42' W 004°31'  

Dump ship's entire track history